createdAt,value
2023-04-28T00:02:24.407Z,6.24
2023-04-28T00:05:27.238Z,6.14
2023-04-28T00:08:31.488Z,6.08
2023-04-28T00:11:34.071Z,6.06
2023-04-28T00:14:36.716Z,6.05
2023-04-28T00:17:39.358Z,6.05
2023-04-28T00:20:41.989Z,5.95
2023-04-28T00:23:45.959Z,5.96
2023-04-28T00:26:48.609Z,5.96
2023-04-28T00:29:51.193Z,6.07
2023-04-28T00:32:53.792Z,5.94
2023-04-28T00:36:00.732Z,5.84
2023-04-28T00:39:04.774Z,5.81
2023-04-28T00:42:07.372Z,5.84
2023-04-28T00:45:10.741Z,5.69
2023-04-28T00:48:14.512Z,5.66
2023-04-28T00:51:17.496Z,5.61
2023-04-28T00:54:21.995Z,5.66
2023-04-28T00:57:24.958Z,5.60
2023-04-28T01:00:27.577Z,5.58
2023-04-28T01:03:30.416Z,5.58
2023-04-28T01:06:33.633Z,5.54
2023-04-28T01:09:37.553Z,5.48
2023-04-28T01:12:40.119Z,5.54
2023-04-28T01:15:42.805Z,5.49
2023-04-28T01:18:48.602Z,5.48
2023-04-28T01:21:51.576Z,5.43
2023-04-28T01:24:55.617Z,5.39
2023-04-28T01:27:58.184Z,5.37
2023-04-28T01:31:00.786Z,5.44
2023-04-28T01:34:03.507Z,5.39
2023-04-28T01:37:06.140Z,5.44
2023-04-28T01:40:11.445Z,5.45
2023-04-28T01:43:14.047Z,5.49
2023-04-28T01:46:16.727Z,5.54
2023-04-28T01:49:19.368Z,5.58
2023-04-28T01:52:23.016Z,5.62
2023-04-28T01:55:26.964Z,5.72
2023-04-28T01:58:29.610Z,5.72
2023-04-28T02:01:32.222Z,5.52
2023-04-28T02:04:34.975Z,5.56
2023-04-28T02:07:37.607Z,5.55
2023-04-28T02:10:41.568Z,5.44
2023-04-28T02:13:44.174Z,5.40
2023-04-28T02:16:46.793Z,5.38
2023-04-28T02:19:49.370Z,5.34
2023-04-28T02:22:52.172Z,5.36
2023-04-28T02:26:03.582Z,5.15
2023-04-28T02:29:06.190Z,5.29
2023-04-28T02:32:09.004Z,5.27
2023-04-28T02:35:11.658Z,5.32
2023-04-28T02:38:14.348Z,5.27
2023-04-28T02:41:18.408Z,5.26
2023-04-28T02:44:21.734Z,5.18
2023-04-28T02:47:24.343Z,5.11
2023-04-28T02:50:26.927Z,5.14
2023-04-28T02:53:29.538Z,4.99
2023-04-28T02:56:33.719Z,5.02
2023-04-28T02:59:36.530Z,5.03
2023-04-28T03:02:39.123Z,5.06
2023-04-28T03:05:41.788Z,4.99
2023-04-28T03:08:44.439Z,4.93
2023-04-28T03:11:48.372Z,5.01
2023-04-28T03:14:50.937Z,5.03
2023-04-28T03:17:53.738Z,5.09
2023-04-28T03:20:56.582Z,5.09
2023-04-28T03:23:59.154Z,5.17
2023-04-28T03:27:03.712Z,5.06
2023-04-28T03:30:07.788Z,5.15
2023-04-28T03:33:10.454Z,5.18
2023-04-28T03:36:15.164Z,5.11
2023-04-28T03:39:17.793Z,5.20
2023-04-28T03:42:21.719Z,5.03
2023-04-28T03:45:24.316Z,5.04
2023-04-28T03:48:26.948Z,5.21
2023-04-28T03:51:29.737Z,5.13
2023-04-28T03:54:32.315Z,5.14
2023-04-28T03:57:36.338Z,5.17
2023-04-28T04:00:38.973Z,5.19
2023-04-28T04:03:41.814Z,5.21
2023-04-28T04:06:44.545Z,5.13
2023-04-28T04:09:47.124Z,5.13
2023-04-28T04:12:51.096Z,5.20
2023-04-28T04:15:53.969Z,5.21
2023-04-28T04:18:56.882Z,5.33
2023-04-28T04:21:59.467Z,5.19
2023-04-28T04:25:02.191Z,5.38
2023-04-28T04:28:06.284Z,5.38
2023-04-28T04:31:09.385Z,5.40
2023-04-28T04:34:12.074Z,5.49
2023-04-28T04:37:14.673Z,5.62
2023-04-28T04:40:17.378Z,5.64
2023-04-28T04:43:21.343Z,5.74
2023-04-28T04:46:24.023Z,5.82
2023-04-28T04:49:26.655Z,5.93
2023-04-28T04:52:29.229Z,5.89
2023-04-28T04:55:31.818Z,5.89
2023-04-28T04:58:35.811Z,6.05
2023-04-28T05:01:38.426Z,6.03
2023-04-28T05:04:41.365Z,6.11
2023-04-28T05:07:44.211Z,6.05
2023-04-28T05:10:46.832Z,6.19
2023-04-28T05:13:51.481Z,6.27
2023-04-28T05:16:54.172Z,6.36
2023-04-28T05:19:56.791Z,6.53
2023-04-28T05:22:59.409Z,6.56
2023-04-28T05:26:03.105Z,6.64
2023-04-28T05:29:07.290Z,6.88
2023-04-28T05:32:09.924Z,7.09
2023-04-28T05:35:12.477Z,7.16
2023-04-28T05:38:15.103Z,7.16
2023-04-28T05:41:17.751Z,7.14
2023-04-28T05:44:21.693Z,7.36
2023-04-28T05:47:24.360Z,7.48
2023-04-28T05:50:27.008Z,7.71
2023-04-28T05:53:30.731Z,7.84
2023-04-28T05:56:34.339Z,7.93
2023-04-28T05:59:38.438Z,8.04
2023-04-28T06:02:41.294Z,8.11
2023-04-28T06:05:44.174Z,8.38
2023-04-28T06:08:47.689Z,8.44
2023-04-28T06:11:50.338Z,8.46
2023-04-28T06:14:55.360Z,8.61
2023-04-28T06:17:59.018Z,8.82
2023-04-28T06:21:01.715Z,8.96
2023-04-28T06:24:04.667Z,9.02
2023-04-28T06:27:07.307Z,8.98
2023-04-28T06:30:11.747Z,9.08
2023-04-28T06:33:14.324Z,9.32
2023-04-28T06:36:17.932Z,9.54
2023-04-28T06:39:20.742Z,9.55
2023-04-28T06:42:23.352Z,9.65
2023-04-28T06:45:27.351Z,9.76
2023-04-28T06:48:30.223Z,9.94
2023-04-28T06:51:33.442Z,10.00
2023-04-28T06:54:37.370Z,9.97
2023-04-28T06:57:40.006Z,10.25
2023-04-28T07:00:44.021Z,10.16
2023-04-28T07:03:46.694Z,10.28
2023-04-28T07:06:49.471Z,10.39
2023-04-28T07:09:53.239Z,10.57
2023-04-28T07:12:55.826Z,10.47
2023-04-28T07:15:59.930Z,10.61
2023-04-28T07:19:02.589Z,10.66
2023-04-28T07:22:05.351Z,10.62
2023-04-28T07:25:08.425Z,10.90
2023-04-28T07:28:11.025Z,11.08
2023-04-28T07:31:14.957Z,11.14
2023-04-28T07:34:17.755Z,11.20
2023-04-28T07:37:20.756Z,11.47
2023-04-28T07:40:23.591Z,11.78
2023-04-28T07:43:26.335Z,11.97
2023-04-28T07:46:30.472Z,12.18
2023-04-28T07:49:33.193Z,12.36
2023-04-28T07:52:36.176Z,12.52
2023-04-28T07:55:41.799Z,12.66
2023-04-28T07:58:44.453Z,12.63
2023-04-28T08:01:48.424Z,12.79
2023-04-28T08:04:51.264Z,13.11
2023-04-28T08:07:54.389Z,13.20
2023-04-28T08:10:57.219Z,13.26
2023-04-28T08:14:02.696Z,13.45
2023-04-28T08:17:06.670Z,13.55
2023-04-28T08:20:10.690Z,13.37
2023-04-28T08:23:13.317Z,13.69
2023-04-28T08:26:16.688Z,13.60
2023-04-28T08:29:19.289Z,13.54
2023-04-28T08:32:23.284Z,13.37
2023-04-28T08:35:26.306Z,13.45
2023-04-28T08:38:29.060Z,13.52
2023-04-28T08:41:33.868Z,13.66
2023-04-28T08:44:39.510Z,13.79
2023-04-28T08:47:46.071Z,13.77
2023-04-28T08:50:51.817Z,13.72
2023-04-28T08:57:02.066Z,13.83
2023-04-28T09:00:05.324Z,13.78
2023-04-28T09:03:09.497Z,13.89
2023-04-28T09:06:12.513Z,13.86
2023-04-28T09:09:26.082Z,13.98
2023-04-28T09:12:38.048Z,14.00
2023-04-28T09:15:41.602Z,13.95
2023-04-28T09:18:57.855Z,13.80
2023-04-28T09:22:02.157Z,14.01
2023-04-28T09:25:12.373Z,14.14
2023-04-28T09:28:21.965Z,14.21
2023-04-28T09:31:27.256Z,14.36
2023-04-28T09:34:45.283Z,14.86
2023-04-28T09:37:48.017Z,15.06
2023-04-28T09:40:52.384Z,15.01
2023-04-28T09:43:55.090Z,15.11
2023-04-28T09:46:58.168Z,15.03
2023-04-28T09:50:03.819Z,15.10
2023-04-28T09:53:06.945Z,14.98
2023-04-28T09:56:09.981Z,15.05
2023-04-28T09:59:12.655Z,14.75
2023-04-28T10:02:41.043Z,15.18
2023-04-28T10:05:40.824Z,15.26
2023-04-28T10:08:45.407Z,15.58
2023-04-28T10:11:48.825Z,15.60
2023-04-28T10:14:54.460Z,15.58
2023-04-28T10:17:57.205Z,15.71
2023-04-28T10:21:03.182Z,16.04
2023-04-28T10:24:12.331Z,15.96
2023-04-28T10:27:15.496Z,15.52
2023-04-28T10:30:27.465Z,16.22
2023-04-28T10:33:32.292Z,16.05
2023-04-28T10:36:55.484Z,16.05
2023-04-28T10:40:32.585Z,16.26
2023-04-28T10:43:39.446Z,16.25
2023-04-28T10:47:01.867Z,16.61
2023-04-28T10:50:11.645Z,16.74
2023-04-28T10:53:15.626Z,16.92
2023-04-28T10:56:20.226Z,16.54
2023-04-28T10:59:27.247Z,16.37
2023-04-28T11:02:44.502Z,16.43
2023-04-28T11:06:19.111Z,16.62
2023-04-28T11:09:49.858Z,16.84
2023-04-28T11:13:26.555Z,16.31
2023-04-28T11:16:29.381Z,15.94
2023-04-28T11:19:34.100Z,16.55
2023-04-28T11:22:36.948Z,16.80
2023-04-28T11:25:56.161Z,16.72
2023-04-28T11:28:59.509Z,16.88
2023-04-28T11:32:03.432Z,17.29
2023-04-28T11:35:09.698Z,17.68
2023-04-28T11:38:12.377Z,17.58
2023-04-28T11:41:16.488Z,17.50
2023-04-28T11:44:20.794Z,17.31
2023-04-28T11:47:31.387Z,17.20
2023-04-28T11:50:37.332Z,17.19
2023-04-28T11:53:43.613Z,17.35
2023-04-28T11:56:47.675Z,17.13
2023-04-28T11:59:51.085Z,16.86
2023-04-28T12:02:54.165Z,16.97
2023-04-28T12:05:57.137Z,16.90
2023-04-28T12:09:04.305Z,16.70
2023-04-28T12:12:10.361Z,16.67
2023-04-28T12:15:12.925Z,16.75
2023-04-28T12:18:19.322Z,16.99
2023-04-28T12:21:22.732Z,16.85
2023-04-28T12:24:26.796Z,16.89
2023-04-28T12:27:32.097Z,16.70
2023-04-28T12:30:38.635Z,16.85
2023-04-28T12:33:41.210Z,16.77
2023-04-28T12:36:46.404Z,16.64
2023-04-28T12:39:49.005Z,16.49
2023-04-28T12:42:52.961Z,16.51
2023-04-28T12:45:56.392Z,16.35
2023-04-28T12:48:59.061Z,16.38
2023-04-28T12:52:01.760Z,16.15
2023-04-28T12:55:04.613Z,16.07
2023-04-28T12:58:08.556Z,15.83
2023-04-28T13:01:11.314Z,15.85
2023-04-28T13:04:14.381Z,15.67
2023-04-28T13:07:17.233Z,15.65
2023-04-28T13:10:21.268Z,15.69
2023-04-28T13:13:25.220Z,15.90
2023-04-28T13:16:30.339Z,15.59
2023-04-28T13:19:34.407Z,15.67
2023-04-28T13:22:37.093Z,15.68
2023-04-28T13:25:39.740Z,15.50
2023-04-28T13:28:43.759Z,15.56
2023-04-28T13:31:46.562Z,15.49
2023-04-28T13:34:49.232Z,15.43
2023-04-28T13:37:56.131Z,15.46
2023-04-28T13:40:58.740Z,15.46
2023-04-28T13:44:02.733Z,15.41
2023-04-28T13:47:08.988Z,15.26
2023-04-28T13:50:11.598Z,15.23
2023-04-28T13:53:14.446Z,15.34
2023-04-28T13:56:17.042Z,15.40
2023-04-28T13:59:21.116Z,15.39
2023-04-28T14:02:24.575Z,15.30
2023-04-28T14:05:29.805Z,15.34
2023-04-28T14:08:34.090Z,15.47
2023-04-28T14:11:36.690Z,15.34
2023-04-28T14:14:41.013Z,15.51
2023-04-28T14:17:43.748Z,15.55
2023-04-28T14:20:46.475Z,15.56
2023-04-28T14:23:49.272Z,15.57
2023-04-28T14:26:52.673Z,15.54
2023-04-28T14:29:56.622Z,15.56
2023-04-28T14:32:59.277Z,15.55
2023-04-28T14:36:02.783Z,15.39
2023-04-28T14:39:05.470Z,15.54
2023-04-28T14:42:08.037Z,15.55
2023-04-28T14:45:12.789Z,15.53
2023-04-28T14:48:15.559Z,15.48
2023-04-28T14:51:18.217Z,15.54
2023-04-28T14:54:21.800Z,15.41
2023-04-28T14:57:25.049Z,15.32
2023-04-28T15:00:29.188Z,15.23
2023-04-28T15:03:32.549Z,15.26
2023-04-28T15:06:35.386Z,15.08
2023-04-28T15:09:38.044Z,14.98
2023-04-28T15:12:40.833Z,14.90
2023-04-28T15:15:44.786Z,15.00
2023-04-28T15:18:48.344Z,15.03
2023-04-28T15:21:51.375Z,14.91
2023-04-28T15:24:55.269Z,14.92
2023-04-28T15:27:57.872Z,14.91
2023-04-28T15:31:01.855Z,14.81
2023-04-28T15:34:04.475Z,14.82
2023-04-28T15:37:40.730Z,14.69
2023-04-28T15:40:44.380Z,14.76
2023-04-28T15:43:47.065Z,14.79
2023-04-28T15:46:52.370Z,14.89
2023-04-28T15:49:55.009Z,14.80
2023-04-28T15:52:58.076Z,14.85
2023-04-28T15:56:01.055Z,14.87
2023-04-28T15:59:04.264Z,14.71
2023-04-28T16:02:08.651Z,14.83
2023-04-28T16:05:12.119Z,14.80
2023-04-28T16:08:14.714Z,14.82
2023-04-28T16:11:20.254Z,14.74
2023-04-28T16:14:22.846Z,14.70
2023-04-28T16:17:26.878Z,14.61
2023-04-28T16:20:29.765Z,14.58
2023-04-28T16:23:32.354Z,14.64
2023-04-28T16:26:35.255Z,14.66
2023-04-28T16:29:37.956Z,14.71
2023-04-28T16:32:42.307Z,14.70
2023-04-28T16:35:44.912Z,14.64
2023-04-28T16:38:47.758Z,14.76
2023-04-28T16:41:50.373Z,14.59
2023-04-28T16:44:53.372Z,14.56
2023-04-28T16:47:57.384Z,14.61
2023-04-28T16:51:00.023Z,14.60
2023-04-28T16:54:03.364Z,14.52
2023-04-28T16:57:06.334Z,14.51
2023-04-28T17:00:10.343Z,14.50
2023-04-28T17:03:14.384Z,14.28
2023-04-28T17:06:17.069Z,14.11
2023-04-28T17:09:20.635Z,14.21
2023-04-28T17:12:23.395Z,14.05
2023-04-28T17:15:27.060Z,13.87
2023-04-28T17:18:31.105Z,13.75
2023-04-28T17:21:34.101Z,13.56
2023-04-28T17:24:36.670Z,13.47
2023-04-28T17:27:39.366Z,13.33
2023-04-28T17:30:43.829Z,13.22
2023-04-28T17:33:53.352Z,13.07
2023-04-28T17:36:56.262Z,13.12
2023-04-28T17:39:59.200Z,13.07
2023-04-28T17:43:02.609Z,13.03
2023-04-28T17:46:05.309Z,12.97
2023-04-28T17:49:09.275Z,12.91
2023-04-28T17:52:11.915Z,12.79
2023-04-28T17:55:14.777Z,12.81
2023-04-28T17:58:17.357Z,12.78
2023-04-28T18:01:20.007Z,12.71
2023-04-28T18:04:24.097Z,12.69
2023-04-28T18:07:26.834Z,12.66
2023-04-28T18:10:29.628Z,12.63
2023-04-28T18:13:33.492Z,12.59
2023-04-28T18:16:36.159Z,12.57
2023-04-28T18:19:40.497Z,12.54
2023-04-28T18:22:43.208Z,12.46
2023-04-28T18:25:45.784Z,12.43
2023-04-28T18:28:48.779Z,12.35
2023-04-28T18:31:51.681Z,12.31
2023-04-28T18:34:55.720Z,12.32
2023-04-28T18:38:00.922Z,12.26
2023-04-28T18:41:12.122Z,12.10
2023-04-28T18:44:15.199Z,12.11
2023-04-28T18:47:18.885Z,12.10
2023-04-28T18:50:23.634Z,11.98
2023-04-28T18:53:26.273Z,11.94
2023-04-28T18:56:29.083Z,11.94
2023-04-28T18:59:31.670Z,11.87
2023-04-28T19:02:34.342Z,11.68
2023-04-28T19:05:38.592Z,11.72
2023-04-28T19:08:42.929Z,11.68
2023-04-28T19:11:45.966Z,11.69
2023-04-28T19:14:48.613Z,11.63
2023-04-28T19:17:51.796Z,11.53
2023-04-28T19:21:01.652Z,11.51
2023-04-28T19:24:04.305Z,11.63
2023-04-28T19:27:07.180Z,11.55
2023-04-28T19:30:11.926Z,11.55
2023-04-28T19:33:14.600Z,11.61
2023-04-28T19:36:18.734Z,11.55
2023-04-28T19:39:21.946Z,11.55
2023-04-28T19:42:24.708Z,11.64
2023-04-28T19:45:27.472Z,11.62
2023-04-28T19:48:30.140Z,11.56
2023-04-28T19:51:34.551Z,11.61
2023-04-28T19:54:38.620Z,11.60
2023-04-28T19:57:41.535Z,11.52
2023-04-28T20:00:45.264Z,11.46
2023-04-28T20:03:48.059Z,11.46
2023-04-28T20:06:52.443Z,11.45
2023-04-28T20:09:56.075Z,11.38
2023-04-28T20:12:58.945Z,11.34
2023-04-28T20:16:01.568Z,11.24
2023-04-28T20:19:04.767Z,11.28
2023-04-28T20:22:09.022Z,11.30
2023-04-28T20:25:12.117Z,11.32
2023-04-28T20:28:14.933Z,11.34
2023-04-28T20:31:17.535Z,11.21
2023-04-28T20:34:21.561Z,11.15
2023-04-28T20:37:26.306Z,11.24
2023-04-28T20:40:29.537Z,11.17
2023-04-28T20:43:32.404Z,11.13
2023-04-28T20:46:35.282Z,11.12
2023-04-28T20:49:37.946Z,11.28
2023-04-28T20:52:42.080Z,11.15
2023-04-28T20:55:44.682Z,11.26
2023-04-28T20:58:47.846Z,11.25
2023-04-28T21:01:50.493Z,11.17
2023-04-28T21:04:53.926Z,11.14
2023-04-28T21:07:57.979Z,11.19
2023-04-28T21:11:00.701Z,11.11
2023-04-28T21:14:03.309Z,11.07
2023-04-28T21:17:05.876Z,11.03
2023-04-28T21:20:09.228Z,11.04
2023-04-28T21:23:13.402Z,11.05
2023-04-28T21:26:16.009Z,10.95
2023-04-28T21:29:19.293Z,10.98
2023-04-28T21:32:21.914Z,11.04
2023-04-28T21:35:24.628Z,10.91
2023-04-28T21:38:28.571Z,10.78
2023-04-28T21:41:31.648Z,10.80
2023-04-28T21:44:34.235Z,10.88
2023-04-28T21:47:37.927Z,10.88
2023-04-28T21:50:40.598Z,10.90
2023-04-28T21:53:44.619Z,10.76
2023-04-28T21:56:47.502Z,10.81
2023-04-28T21:59:50.259Z,10.68
2023-04-28T22:02:53.669Z,10.84
2023-04-28T22:05:56.658Z,10.76
2023-04-28T22:09:01.299Z,10.75
2023-04-28T22:12:04.092Z,10.57
2023-04-28T22:15:08.031Z,10.38
2023-04-28T22:18:10.673Z,10.65
2023-04-28T22:21:13.870Z,10.76
2023-04-28T22:24:18.440Z,10.85
2023-04-28T22:27:21.093Z,10.84
2023-04-28T22:30:26.006Z,10.79
2023-04-28T22:33:28.826Z,10.49
2023-04-28T22:36:32.489Z,10.71
2023-04-28T22:39:36.498Z,10.59
2023-04-28T22:42:39.988Z,10.47
2023-04-28T22:45:45.529Z,10.36
2023-04-28T22:48:48.186Z,10.47
2023-04-28T22:51:50.823Z,10.48
2023-04-28T22:54:54.784Z,10.46
2023-04-28T22:57:57.444Z,10.49
2023-04-28T23:01:01.885Z,10.60
2023-04-28T23:04:04.750Z,10.48
2023-04-28T23:07:07.756Z,10.30
2023-04-28T23:10:14.605Z,10.44
2023-04-28T23:13:17.391Z,10.37
2023-04-28T23:16:20.076Z,10.23
2023-04-28T23:19:22.744Z,10.33
2023-04-28T23:22:25.371Z,10.24
2023-04-28T23:25:29.322Z,10.27
2023-04-28T23:28:31.929Z,10.22
2023-04-28T23:31:39.629Z,9.98
2023-04-28T23:34:42.729Z,10.14
2023-04-28T23:37:45.459Z,10.13
2023-04-28T23:40:49.386Z,10.12
2023-04-28T23:43:52.602Z,9.92
2023-04-28T23:46:56.336Z,9.99
2023-04-28T23:49:59.041Z,9.98
2023-04-28T23:53:01.738Z,9.83
2023-04-28T23:56:06.462Z,9.94
2023-04-28T23:59:09.297Z,10.14
